Time;durP1;ratioP1;P1;durP2;ratioP2;P2;SDS_P1;SDS_P2;PMS_P1;PMS_P2;Temp;Humidity;BMP_temperature;BMP_pressure;BME280_temperature;BME280_humidity;BME280_pressure;Samples;Min_cycle;Max_cycle;Signal;HPM_P1;HPM_P2
2023/06/07 00:07:29;;;;;;;14.05;3.88;;;;;;;;;;4987605;23;20265;-87
2023/06/07 00:10:15;;;;;;;10.07;3.42;;;;;;;;;;4929550;28;20100;-88
2023/06/07 00:13:01;;;;;;;11.55;3.47;;;;;;;;;;4946873;28;20630;-88
2023/06/07 00:15:43;;;;;;;;;;;;;;;;;;;;;
2023/06/07 00:18:26;;;;;;;;;;;;;;;;;;;;;
2023/06/07 00:21:04;;;;;;;11.98;3.83;;;;;;;;;;4956310;28;20082;-87
2023/06/07 00:23:41;;;;;;;10.90;3.70;;;;;;;;;;4929911;28;20406;-88
2023/06/07 00:26:16;;;;;;;11.88;4.18;;;;;;;;;;4946191;28;20082;-88
2023/06/07 00:28:45;;;;;;;14.75;4.30;;;;;;;;;;4929089;28;20050;-88
2023/06/07 00:31:28;;;;;;;9.23;3.30;;;;;;;;;;4930036;28;20043;-88
2023/06/07 00:34:26;;;;;;;11.20;3.83;;;;;;;;;;4927981;28;20047;-89
2023/06/07 00:37:23;;;;;;;10.65;4.05;;;;;;;;;;4934168;28;20061;-87
2023/06/07 00:39:58;;;;;;;9.70;3.50;;;;;;;;;;4930422;28;20530;-89
2023/06/07 00:42:36;;;;;;;9.82;3.35;;;;;;;;;;4932686;28;20046;-86
2023/06/07 00:45:14;;;;;;;10.80;3.30;;;;;;;;;;4932596;28;20405;-87
2023/06/07 00:47:58;;;;;;;14.15;3.88;;;;;;;;;;4931934;28;20423;-88
2023/06/07 00:50:50;;;;;;;10.38;3.88;;;;;;;;;;4927818;28;20082;-86
2023/06/07 00:53:42;;;;;;;10.45;3.50;;;;;;;;;;4932008;28;20046;-88
2023/06/07 00:56:34;;;;;;;14.48;4.35;;;;;;;;;;4941534;28;20039;-88
2023/06/07 00:59:19;;;;;;;13.00;3.88;;;;;;;;;;4946077;28;20402;-88
2023/06/07 01:02:01;;;;;;;;;;;;;;;;;;;;;
2023/06/07 01:04:51;;;;;;;10.40;3.47;;;;;;;;;;4948721;28;20078;-88
2023/06/07 01:07:29;;;;;;;11.55;3.75;;;;;;;;;;4932813;28;20073;-87
2023/06/07 01:10:17;;;;;;;15.30;3.92;;;;;;;;;;4935086;28;20801;-88
2023/06/07 01:12:43;;;;;;;;;;;;;;;;;;4942854;28;20035;-88
2023/06/07 01:15:13;;;;;;;8.05;3.40;;;;;;;;;;4942740;28;19928;-88
2023/06/07 01:17:57;;;;;;;11.32;3.58;;;;;;;;;;4932950;28;20549;-87
2023/06/07 01:20:30;;;;;;;12.60;3.75;;;;;;;;;;4935089;28;20144;-86
2023/06/07 01:23:07;;;;;;;14.63;3.80;;;;;;;;;;4934982;28;20042;-88
2023/06/07 01:25:58;;;;;;;10.82;3.47;;;;;;;;;;4932678;28;20566;-88
2023/06/07 01:28:30;;;;;;;9.18;3.35;;;;;;;;;;4941897;28;20050;-89
2023/06/07 01:31:02;;;;;;;10.10;3.28;;;;;;;;;;4941736;28;20097;-87
2023/06/07 01:33:48;;;;;;;8.70;3.50;;;;;;;;;;4931791;28;20363;-88
2023/06/07 01:42:51;;;;;;;15.40;3.88;;;;;;;;;;4914681;28;20054;-88
2023/06/07 01:45:33;;;;;;;12.43;3.45;;;;;;;;;;4945041;28;20035;-88
2023/06/07 01:48:29;;;;;;;12.52;4.07;;;;;;;;;;4931432;28;20300;-88
2023/06/07 01:51:35;;;;;;;;;;;;;;;;;;;;;
2023/06/07 01:58:20;;;;;;;9.50;3.83;;;;;;;;;;4867901;29;20123;-87
2023/06/07 02:01:37;;;;;;;10.98;3.67;;;;;;;;;;4833149;29;20144;-87
2023/06/07 02:04:42;;;;;;;;;;;;;;;;;;;;;
2023/06/07 02:11:15;;;;;;;13.82;3.72;;;;;;;;;;4933114;28;20045;-88
2023/06/07 02:39:42;;;;;;;11.02;3.83;;;;;;;;;;4872540;29;20135;-89
2023/06/07 03:34:09;;;;;;;10.13;3.50;;;;;;;;;;4448400;23;20141;-89
2023/06/07 03:43:53;;;;;;;11.90;3.65;;;;;;;;;;4913013;28;20053;-88
2023/06/07 03:46:53;;;;;;;9.88;3.72;;;;;;;;;;4959628;28;20070;-89
2023/06/07 03:50:26;;;;;;;;;;;;;;;;;;;;;
2023/06/07 03:53:46;;;;;;;8.27;3.28;;;;;;;;;;4882041;29;20418;-89
2023/06/07 04:35:57;;;;;;;8.82;3.03;;;;;;;;;;3568811;23;20423;-88
2023/06/07 04:46:09;;;;;;;12.85;3.42;;;;;;;;;;4886355;29;20044;-87
2023/06/07 04:48:44;;;;;;;8.90;3.20;;;;;;;;;;4867515;29;20139;-88
2023/06/07 04:51:18;;;;;;;9.63;3.05;;;;;;;;;;4915195;28;20102;-86
2023/06/07 04:54:18;;;;;;;12.07;3.58;;;;;;;;;;4933092;28;20192;-87
2023/06/07 04:57:20;;;;;;;14.98;3.35;;;;;;;;;;4932233;28;20049;-88
2023/06/07 04:59:55;;;;;;;10.15;3.85;;;;;;;;;;4931919;28;20156;-86
2023/06/07 05:06:00;;;;;;;9.05;3.13;;;;;;;;;;4964737;28;20544;-89
2023/06/07 05:08:46;;;;;;;13.50;4.38;;;;;;;;;;4928594;28;20154;-88
2023/06/07 05:11:18;;;;;;;15.10;4.43;;;;;;;;;;4949516;28;20542;-87
2023/06/07 05:16:45;;;;;;;8.15;3.03;;;;;;;;;;4941355;28;20043;-87
2023/06/07 05:19:21;;;;;;;;;;;;;;;;;;;;;
2023/06/07 05:21:58;;;;;;;9.32;3.35;;;;;;;;;;4948081;28;20042;-88
2023/06/07 05:24:27;;;;;;;10.77;3.40;;;;;;;;;;4931673;28;20141;-86
2023/06/07 05:27:10;;;;;;;10.65;3.53;;;;;;;;;;4935161;28;20035;-86
2023/06/07 05:29:39;;;;;;;12.07;3.35;;;;;;;;;;4947301;28;20042;-87
2023/06/07 05:32:25;;;;;;;12.13;3.90;;;;;;;;;;4934685;28;20046;-86
2023/06/07 05:34:54;;;;;;;10.73;3.17;;;;;;;;;;4933306;28;20562;-88
2023/06/07 05:37:26;;;;;;;8.07;2.95;;;;;;;;;;4934077;28;20100;-88
2023/06/07 05:39:59;;;;;;;9.60;4.00;;;;;;;;;;4939498;28;20513;-88
2023/06/07 05:42:38;;;;;;;9.07;3.08;;;;;;;;;;4938519;28;20051;-88
2023/06/07 05:50:52;;;;;;;13.80;3.55;;;;;;;;;;4994989;23;20144;-88
2023/06/07 05:53:26;;;;;;;16.27;4.07;;;;;;;;;;4934860;28;20288;-88
2023/06/07 05:56:27;;;;;;;9.77;3.38;;;;;;;;;;4951788;28;20042;-89
2023/06/07 05:58:54;;;;;;;10.20;3.47;;;;;;;;;;4947863;28;20379;-86
2023/06/07 06:01:30;;;;;;;12.88;3.50;;;;;;;;;;4931778;28;20569;-87
2023/06/07 06:04:20;;;;;;;10.38;3.20;;;;;;;;;;4936521;28;20050;-88
2023/06/07 06:07:09;;;;;;;10.95;3.13;;;;;;;;;;4940504;28;20789;-87
2023/06/07 06:09:38;;;;;;;11.10;2.75;;;;;;;;;;4939785;28;20058;-88
2023/06/07 06:12:33;;;;;;;10.00;2.97;;;;;;;;;;4927084;28;20089;-87
2023/06/07 06:15:35;;;;;;;10.55;3.50;;;;;;;;;;4867750;29;20146;-88
2023/06/07 06:18:14;;;;;;;;;;;;;;;;;;;;;
2023/06/07 06:24:09;;;;;;;9.30;3.00;;;;;;;;;;4922767;29;20047;-88
2023/06/07 06:26:56;;;;;;;11.32;3.20;;;;;;;;;;4893402;29;20725;-88
2023/06/07 06:32:47;;;;;;;11.82;3.45;;;;;;;;;;4947378;28;19921;-88
2023/06/07 06:38:53;;;;;;;9.80;3.50;;;;;;;;;;4955349;28;20046;-88
2023/06/07 06:41:42;;;;;;;10.63;3.40;;;;;;;;;;4949424;28;20034;-88
2023/06/07 06:44:44;;;;;;;12.90;3.53;;;;;;;;;;4929010;28;20054;-88
2023/06/07 06:47:21;;;;;;;11.02;4.22;;;;;;;;;;4950158;23;20142;-88
2023/06/07 06:49:48;;;;;;;8.55;3.20;;;;;;;;;;4920999;28;20078;-89
2023/06/07 06:52:35;;;;;;;9.70;3.38;;;;;;;;;;4920042;28;20082;-88
2023/06/07 06:55:30;;;;;;;12.02;3.33;;;;;;;;;;4918022;28;20054;-87
2023/06/07 06:58:05;;;;;;;10.10;3.55;;;;;;;;;;4812445;29;20596;-90
2023/06/07 07:01:02;;;;;;;13.23;4.00;;;;;;;;;;4900205;29;20580;-88
2023/06/07 07:03:42;;;;;;;10.95;3.40;;;;;;;;;;4913029;29;20050;-90
2023/06/07 07:06:22;;;;;;;11.45;3.15;;;;;;;;;;4921703;23;20035;-84
2023/06/07 07:08:51;;;;;;;8.55;3.70;;;;;;;;;;4913757;29;20047;-86
2023/06/07 07:11:32;;;;;;;10.25;3.15;;;;;;;;;;4908327;29;20408;-87
2023/06/07 07:21:01;;;;;;;15.35;4.35;;;;;;;;;;4827170;29;20043;-88
2023/06/07 07:23:40;;;;;;;;;;;;;;;;;;;;;
2023/06/07 07:26:21;;;;;;;9.80;3.85;;;;;;;;;;4914448;29;20106;-86
2023/06/07 07:28:52;;;;;;;9.27;3.80;;;;;;;;;;4904172;29;20488;-87
2023/06/07 07:42:05;;;;;;;9.82;3.78;;;;;;;;;;4926297;29;20163;-86
2023/06/07 07:48:21;;;;;;;;;;;;;;;;;;;;;
2023/06/07 07:51:00;;;;;;;10.65;3.72;;;;;;;;;;4911618;29;20093;-86
2023/06/07 08:00:32;;;;;;;12.52;3.97;;;;;;;;;;4831623;29;20050;-87
2023/06/07 08:03:12;;;;;;;15.60;4.97;;;;;;;;;;4820227;29;21145;-86
2023/06/07 08:08:49;;;;;;;12.68;4.28;;;;;;;;;;4973240;23;20150;-87
2023/06/07 08:11:49;;;;;;;10.50;4.22;;;;;;;;;;4936608;28;20046;-86
2023/06/07 08:14:43;;;;;;;10.13;3.28;;;;;;;;;;4934751;28;20047;-87
2023/06/07 08:17:43;;;;;;;9.27;3.50;;;;;;;;;;4919057;28;20452;-90
2023/06/07 08:26:52;;;;;;;11.52;4.25;;;;;;;;;;4956872;28;20141;-92
2023/06/07 08:29:40;;;;;;;;;;;;;;;;;;;;;
2023/06/07 08:32:13;;;;;;;11.75;3.97;;;;;;;;;;4942296;28;20065;-87
2023/06/07 08:49:33;;;;;;;;;;;;;;;;;;;;;
2023/06/07 08:52:35;;;;;;;13.25;4.55;;;;;;;;;;4818534;29;20085;-92
2023/06/07 08:55:21;;;;;;;10.18;4.57;;;;;;;;;;4847049;29;20133;-91
2023/06/07 09:01:47;;;;;;;9.25;4.38;;;;;;;;;;4936115;28;20043;-93
2023/06/07 09:04:19;;;;;;;13.00;3.92;;;;;;;;;;4905272;28;20525;-92
2023/06/07 09:06:51;;;;;;;10.88;4.50;;;;;;;;;;4952025;28;20577;-91
2023/06/07 09:09:39;;;;;;;14.18;4.72;;;;;;;;;;4923745;29;20087;-92
2023/06/07 09:12:26;;;;;;;8.93;4.18;;;;;;;;;;4915689;29;20059;-92
2023/06/07 09:15:06;;;;;;;9.27;4.60;;;;;;;;;;4914620;29;20127;-93
2023/06/07 09:17:58;;;;;;;10.13;4.40;;;;;;;;;;4944497;23;20097;-93
2023/06/07 09:20:41;;;;;;;12.30;4.20;;;;;;;;;;4936464;28;20050;-90
2023/06/07 09:23:40;;;;;;;9.75;4.30;;;;;;;;;;4921917;28;20481;-91
2023/06/07 09:26:25;;;;;;;11.35;4.45;;;;;;;;;;4933638;29;20617;-89
2023/06/07 09:36:09;;;;;;;11.88;4.47;;;;;;;;;;4879640;29;20680;-90
2023/06/07 09:39:27;;;;;;;;;;;;;;;;;;;;;
2023/06/07 09:54:31;;;;;;;7.88;4.32;;;;;;;;;;4900476;29;20503;-86
2023/06/07 09:57:49;;;;;;;11.10;3.70;;;;;;;;;;4878227;29;20060;-88
2023/06/07 10:04:00;;;;;;;13.37;4.03;;;;;;;;;;4897682;29;20067;-87
2023/06/07 10:10:19;;;;;;;;;;;;;;;;;;;;;
2023/06/07 10:21:37;;;;;;;9.18;3.75;;;;;;;;;;4960220;28;20062;-87
2023/06/07 10:24:33;;;;;;;15.13;4.30;;;;;;;;;;4942710;28;20046;-87
2023/06/07 10:30:18;;;;;;;13.07;4.95;;;;;;;;;;4904855;29;20059;-90
2023/06/07 10:33:12;;;;;;;9.82;4.80;;;;;;;;;;4928553;29;20055;-87
2023/06/07 10:36:25;;;;;;;11.77;4.85;;;;;;;;;;4937340;29;20040;-88
2023/06/07 10:42:35;;;;;;;11.82;5.03;;;;;;;;;;4923499;29;20163;-88
2023/06/07 10:45:54;;;;;;;12.20;4.30;;;;;;;;;;4855993;29;20069;-87
2023/06/07 10:48:56;;;;;;;;;;;;;;;;;;;;;
2023/06/07 10:51:58;;;;;;;;;;;;;;;;;;;;;
2023/06/07 10:54:49;;;;;;;12.07;4.72;;;;;;;;;;4938059;29;20050;-87
2023/06/07 10:57:33;;;;;;;12.82;5.30;;;;;;;;;;4940057;29;20051;-87
2023/06/07 11:00:18;;;;;;;11.10;4.95;;;;;;;;;;4933433;29;20486;-87
2023/06/07 11:03:14;;;;;;;12.38;4.90;;;;;;;;;;4953659;28;20047;-86
2023/06/07 11:06:10;;;;;;;11.18;6.07;;;;;;;;;;4942955;29;20063;-87
2023/06/07 11:09:33;;;;;;;12.18;4.80;;;;;;;;;;4932495;28;20047;-87
2023/06/07 11:12:17;;;;;;;10.52;5.25;;;;;;;;;;4930163;29;20085;-87
2023/06/07 11:15:35;;;;;;;10.88;5.90;;;;;;;;;;4934656;28;20071;-88
2023/06/07 11:18:39;;;;;;;;;;;;;;;;;;;;;
2023/06/07 11:21:09;;;;;;;9.52;5.10;;;;;;;;;;4941919;29;20422;-86
2023/06/07 11:24:04;;;;;;;8.50;4.80;;;;;;;;;;4926774;29;20101;-87
2023/06/07 11:26:51;;;;;;;;;;;;;;;;;;;;;
2023/06/07 11:29:32;;;;;;;13.43;4.72;;;;;;;;;;4938681;29;20047;-86
2023/06/07 11:32:10;;;;;;;8.52;4.53;;;;;;;;;;4932472;29;20047;-86
2023/06/07 11:34:57;;;;;;;12.05;5.43;;;;;;;;;;4941069;28;20589;-87
2023/06/07 11:37:35;;;;;;;10.02;4.75;;;;;;;;;;4938225;29;20043;-88
2023/06/07 11:40:32;;;;;;;14.60;5.53;;;;;;;;;;4932727;29;20051;-87
2023/06/07 11:43:27;;;;;;;9.57;4.75;;;;;;;;;;4953947;28;20575;-87
2023/06/07 11:45:59;;;;;;;13.57;4.95;;;;;;;;;;4935814;29;20130;-87
2023/06/07 11:48:30;;;;;;;10.93;4.82;;;;;;;;;;4931647;29;20391;-87
2023/06/07 11:51:02;;;;;;;11.57;5.18;;;;;;;;;;4950407;29;20039;-88
2023/06/07 11:53:33;;;;;;;14.00;5.03;;;;;;;;;;4941047;29;20125;-87
2023/06/07 11:56:00;;;;;;;8.98;4.90;;;;;;;;;;4943219;29;20050;-88
2023/06/07 11:58:36;;;;;;;11.57;4.82;;;;;;;;;;4921653;29;20522;-88
2023/06/07 12:01:12;;;;;;;7.90;4.25;;;;;;;;;;4917919;29;20039;-88
2023/06/07 12:03:38;;;;;;;10.98;4.80;;;;;;;;;;4930591;29;20101;-89
2023/06/07 12:06:11;;;;;;;12.10;4.38;;;;;;;;;;4943507;29;20058;-88
2023/06/07 12:08:38;;;;;;;9.25;4.90;;;;;;;;;;4923481;29;20576;-86
2023/06/07 12:11:13;;;;;;;11.73;4.65;;;;;;;;;;4925356;29;20043;-90
2023/06/07 12:14:13;;;;;;;12.50;4.63;;;;;;;;;;4942878;29;20047;-89
2023/06/07 12:19:41;;;;;;;14.02;5.07;;;;;;;;;;4929280;29;20111;-88
2023/06/07 12:22:29;;;;;;;9.55;4.13;;;;;;;;;;4931990;29;20046;-88
2023/06/07 12:25:14;;;;;;;11.60;3.65;;;;;;;;;;4944725;29;20039;-85
2023/06/07 12:27:50;;;;;;;9.65;4.35;;;;;;;;;;4947128;29;20035;-87
2023/06/07 12:30:31;;;;;;;9.80;4.30;;;;;;;;;;4945407;29;20133;-87
2023/06/07 12:33:22;;;;;;;10.60;4.07;;;;;;;;;;4945240;29;20491;-88
2023/06/07 12:35:50;;;;;;;10.88;4.00;;;;;;;;;;4940935;29;20065;-85
2023/06/07 12:38:22;;;;;;;8.98;4.10;;;;;;;;;;4947907;29;20058;-86
2023/06/07 12:41:05;;;;;;;12.10;4.22;;;;;;;;;;4923845;29;20527;-85
2023/06/07 12:43:34;;;;;;;11.23;5.45;;;;;;;;;;4942972;29;20094;-87
2023/06/07 12:46:05;;;;;;;8.93;3.72;;;;;;;;;;4940652;29;20039;-85
2023/06/07 12:48:49;;;;;;;8.77;4.38;;;;;;;;;;4961061;28;20063;-87
2023/06/07 12:51:20;;;;;;;9.63;3.50;;;;;;;;;;4941847;29;20054;-87
2023/06/07 12:53:56;;;;;;;8.95;3.45;;;34.80;99.90;;;;;;4946750;29;20059;-88
2023/06/07 12:56:26;;;;;;;10.70;3.85;;;35.80;99.90;;;;;;4931218;29;20051;-88
2023/06/07 12:58:58;;;;;;;9.57;3.67;;;36.70;99.90;;;;;;4928749;29;20054;-88
2023/06/07 13:01:27;;;;;;;9.07;3.60;;;38.80;74.20;;;;;;4935212;29;20127;-87
2023/06/07 13:04:09;;;;;;;9.80;4.25;;;38.70;85.30;;;;;;4955437;28;20126;-87
2023/06/07 13:06:47;;;;;;;8.73;3.53;;;38.90;42.70;;;;;;4943576;29;20663;-88
2023/06/07 13:09:24;;;;;;;9.32;4.00;;;39.40;64.60;;;;;;4933344;29;20050;-86
2023/06/07 13:12:30;;;;;;;8.52;3.90;;;39.90;55.80;;;;;;4940857;28;20079;-88
2023/06/07 13:15:24;;;;;;;8.57;3.88;;;41.10;45.40;;;;;;4938603;29;20055;-89
2023/06/07 13:18:17;;;;;;;7.28;3.45;;;41.30;35.40;;;;;;4940889;29;20785;-88
2023/06/07 13:20:52;;;;;;;9.55;3.72;;;;;;;;;;4944841;28;20118;-89
2023/06/07 13:23:51;;;;;;;11.20;4.45;;;41.40;1.00;;;;;;4943997;28;20055;-88
2023/06/07 13:26:33;;;;;;;8.82;3.90;;;41.90;1.00;;;;;;4949359;29;20043;-89
2023/06/07 13:28:59;;;;;;;11.48;4.80;;;42.60;1.00;;;;;;4945390;29;20412;-88
2023/06/07 13:31:34;;;;;;;7.97;3.75;;;43.20;1.00;;;;;;4950539;29;20063;-87
2023/06/07 13:34:20;;;;;;;8.48;3.50;;;43.00;1.00;;;;;;4946278;29;20079;-90
2023/06/07 13:36:56;;;;;;;9.68;3.60;;;;;;;;;;4915727;29;20056;-89
2023/06/07 13:40:10;;;;;;;7.50;3.58;;;43.10;1.00;;;;;;4932353;28;20329;-87
2023/06/07 13:45:42;;;;;;;8.93;3.75;;;43.70;1.00;;;;;;4953622;23;20055;-69
2023/06/07 13:48:10;;;;;;;9.05;3.53;;;44.00;1.00;;;;;;4943264;28;20046;-69
2023/06/07 13:50:36;;;;;;;9.52;4.05;;;43.90;1.00;;;;;;4975362;28;20034;-69
2023/06/07 13:53:02;;;;;;;9.25;4.15;;;44.10;1.00;;;;;;4958785;28;20559;-69
2023/06/07 13:55:28;;;;;;;10.88;4.07;;;44.10;1.00;;;;;;4969494;28;20143;-69
2023/06/07 13:57:54;;;;;;;8.70;3.42;;;44.20;1.00;;;;;;4957445;28;20122;-69
2023/06/07 14:00:23;;;;;;;7.85;3.50;;;44.50;1.00;;;;;;4966561;28;20194;-70
2023/06/07 14:02:49;;;;;;;9.07;3.75;;;44.40;1.00;;;;;;4948755;28;20105;-69
2023/06/07 14:05:15;;;;;;;9.30;3.45;;;44.10;1.00;;;;;;4968833;28;20166;-69
2023/06/07 14:07:41;;;;;;;7.78;3.30;;;44.10;1.00;;;;;;4972298;28;20471;-69
2023/06/07 14:10:08;;;;;;;8.02;3.50;;;44.10;1.00;;;;;;4980684;28;20555;-69
2023/06/07 14:12:34;;;;;;;7.80;3.72;;;44.80;1.00;;;;;;4962417;28;20039;-69
2023/06/07 14:14:59;;;;;;;10.57;3.75;;;44.50;1.00;;;;;;4977372;28;20580;-69
2023/06/07 14:17:25;;;;;;;9.25;4.13;;;44.50;1.00;;;;;;4974228;28;20423;-69
2023/06/07 14:19:51;;;;;;;10.20;3.83;;;44.50;1.00;;;;;;4969803;28;20047;-69
2023/06/07 14:22:17;;;;;;;8.02;3.85;;;44.70;1.00;;;;;;4939747;28;20085;-69
2023/06/07 14:24:43;;;;;;;8.27;3.45;;;44.40;1.00;;;;;;4957054;28;20492;-69
2023/06/07 14:27:11;;;;;;;8.13;3.50;;;44.70;1.00;;;;;;4975215;28;20400;-69
2023/06/07 14:29:37;;;;;;;8.57;3.92;;;44.80;1.00;;;;;;4971178;28;20038;-69
2023/06/07 14:32:02;;;;;;;9.65;3.83;;;44.30;1.00;;;;;;4957694;28;20501;-69
2023/06/07 14:34:28;;;;;;;10.10;4.35;;;44.30;1.00;;;;;;4972914;28;20117;-69
2023/06/07 14:36:54;;;;;;;11.38;4.03;;;44.20;1.00;;;;;;4973627;28;20031;-69
2023/06/07 14:39:19;;;;;;;10.18;4.57;;;44.50;1.00;;;;;;4974339;28;20047;-69
2023/06/07 14:41:47;;;;;;;9.45;3.88;;;44.10;1.00;;;;;;4972048;28;20046;-68
2023/06/07 14:44:12;;;;;;;9.18;3.40;;;43.90;1.00;;;;;;4951379;28;20504;-68
2023/06/07 14:46:38;;;;;;;8.63;3.78;;;44.30;1.00;;;;;;4974556;28;20053;-68
2023/06/07 14:49:03;;;;;;;10.50;3.75;;;44.40;1.00;;;;;;4973334;28;20054;-68
2023/06/07 14:51:29;;;;;;;9.45;3.95;;;44.80;1.00;;;;;;4970036;28;20841;-69
2023/06/07 14:53:55;;;;;;;10.00;4.07;;;44.80;1.00;;;;;;4970487;28;20145;-69
2023/06/07 14:56:21;;;;;;;8.70;4.07;;;45.20;1.00;;;;;;4971266;28;20408;-69
2023/06/07 14:58:47;;;;;;;9.35;3.95;;;45.40;1.00;;;;;;4930978;29;20039;-69
2023/06/07 15:01:13;;;;;;;7.57;3.88;;;45.80;1.00;;;;;;4969855;28;20050;-69
2023/06/07 15:03:40;;;;;;;8.60;3.60;;;45.90;1.00;;;;;;4954411;28;20074;-69
2023/06/07 15:06:06;;;;;;;8.80;3.65;;;46.40;1.00;;;;;;4972036;28;20488;-69
2023/06/07 15:08:32;;;;;;;8.98;3.63;;;46.70;1.00;;;;;;4967927;28;20038;-69
2023/06/07 15:10:58;;;;;;;6.47;3.08;;;46.70;1.00;;;;;;4954314;28;20502;-70
2023/06/07 15:13:23;;;;;;;10.32;3.65;;;46.40;1.00;;;;;;4972564;28;20058;-69
2023/06/07 15:15:49;;;;;;;10.75;3.65;;;45.80;1.00;;;;;;4971127;28;20031;-69
2023/06/07 15:18:18;;;;;;;9.27;4.03;;;45.50;1.00;;;;;;4968805;28;20050;-69
2023/06/07 15:20:45;;;;;;;9.70;3.45;;;45.30;1.00;;;;;;4972438;28;20031;-69
2023/06/07 15:23:10;;;;;;;8.90;3.83;;;44.60;1.00;;;;;;4949345;28;20039;-69
2023/06/07 15:25:36;;;;;;;8.57;3.28;;;44.20;1.00;;;;;;4939220;28;20061;-69
2023/06/07 15:28:01;;;;;;;8.77;3.90;;;44.30;1.00;;;;;;4950443;28;20047;-69
2023/06/07 15:30:27;;;;;;;9.38;3.92;;;44.20;1.00;;;;;;4969832;28;20448;-69
2023/06/07 15:32:52;;;;;;;8.20;3.25;;;43.60;1.00;;;;;;4951009;28;20113;-69
2023/06/07 15:35:18;;;;;;;9.65;3.67;;;42.10;1.00;;;;;;4971567;28;20073;-69
2023/06/07 15:37:44;;;;;;;9.23;3.67;;;42.30;1.00;;;;;;4970263;28;20459;-69
2023/06/07 15:40:10;;;;;;;7.20;3.92;;;42.70;1.00;;;;;;4956474;28;20129;-69
2023/06/07 15:42:36;;;;;;;8.20;4.13;;;42.60;1.00;;;;;;4953636;28;20126;-69
2023/06/07 15:45:04;;;;;;;9.35;4.28;;;41.30;1.00;;;;;;4969795;28;20121;-69
2023/06/07 15:47:29;;;;;;;8.98;3.80;;;41.00;1.00;;;;;;4957740;28;20841;-70
2023/06/07 15:49:57;;;;;;;7.32;3.38;;;41.30;1.00;;;;;;4928488;28;20484;-70
2023/06/07 15:52:23;;;;;;;7.75;3.92;;;41.50;1.00;;;;;;4946804;28;20050;-68
2023/06/07 15:54:49;;;;;;;9.68;3.90;;;42.10;1.00;;;;;;4950448;28;20057;-68
2023/06/07 15:57:15;;;;;;;8.38;3.92;;;42.10;1.00;;;;;;4946115;28;20051;-68
2023/06/07 15:59:41;;;;;;;9.18;3.50;;;42.50;1.00;;;;;;4949895;28;20042;-68
2023/06/07 16:02:07;;;;;;;9.00;4.05;;;42.90;1.00;;;;;;4948501;28;20054;-68
2023/06/07 16:04:33;;;;;;;10.65;4.07;;;42.60;1.00;;;;;;4928745;28;20052;-68
2023/06/07 16:06:59;;;;;;;10.52;3.40;;;42.30;1.00;;;;;;4932772;28;20556;-68
2023/06/07 16:09:26;;;;;;;8.07;3.67;;;41.60;1.00;;;;;;4933409;28;20062;-68
2023/06/07 16:11:52;;;;;;;9.43;3.88;;;41.50;1.00;;;;;;4934653;28;20047;-68
2023/06/07 16:14:18;;;;;;;9.68;3.50;;;41.50;1.00;;;;;;4933638;28;20317;-68
2023/06/07 16:16:47;;;;;;;10.27;3.38;;;40.70;1.00;;;;;;4947664;28;20313;-69
2023/06/07 16:19:13;;;;;;;8.70;3.63;;;40.40;1.00;;;;;;4930515;28;20043;-69
2023/06/07 16:21:38;;;;;;;10.00;3.92;;;39.80;1.00;;;;;;4924889;28;20054;-69
2023/06/07 16:24:05;;;;;;;8.57;3.40;;;39.60;1.00;;;;;;4941322;28;20043;-69
2023/06/07 16:26:31;;;;;;;8.95;3.85;;;;;;;;;;4939453;28;20088;-67
2023/06/07 16:28:58;;;;;;;9.25;3.65;;;;;;;;;;4940236;28;20054;-68
2023/06/07 16:31:25;;;;;;;9.98;4.05;;;38.70;1.00;;;;;;4952672;28;20049;-69
2023/06/07 16:33:51;;;;;;;9.10;4.20;;;38.30;1.00;;;;;;4925338;28;20376;-67
2023/06/07 16:36:17;;;;;;;11.25;3.88;;;38.30;1.00;;;;;;4948306;28;20539;-68
2023/06/07 16:38:43;;;;;;;9.55;4.32;;;38.30;1.00;;;;;;4948637;28;20464;-69
2023/06/07 16:41:09;;;;;;;12.90;4.82;;;;;;;;;;4943405;28;20051;-69
2023/06/07 16:43:35;;;;;;;11.35;4.13;;;;;;;;;;4944485;28;20042;-68
2023/06/07 16:46:01;;;;;;;8.50;3.65;;;35.60;1.00;;;;;;4934946;28;20479;-68
2023/06/07 16:48:27;;;;;;;8.82;3.95;;;35.30;1.00;;;;;;4952993;28;20472;-68
2023/06/07 16:50:53;;;;;;;12.60;4.20;;;34.40;1.00;;;;;;4952652;28;20043;-68
2023/06/07 16:53:21;;;;;;;9.68;3.75;;;;;;;;;;4935659;28;20054;-68
2023/06/07 16:55:46;;;;;;;9.07;4.18;;;34.40;1.00;;;;;;4969165;28;20520;-68
2023/06/07 16:58:12;;;;;;;9.32;3.63;;;34.70;1.00;;;;;;4955969;28;20065;-68
2023/06/07 17:00:38;;;;;;;8.43;3.58;;;34.60;1.00;;;;;;4971436;28;20038;-68
2023/06/07 17:03:05;;;;;;;9.85;3.17;;;;;;;;;;4973282;28;20046;-68
2023/06/07 17:05:32;;;;;;;10.18;4.53;;;;;;;;;;4965921;28;20042;-68
2023/06/07 17:08:01;;;;;;;11.32;4.32;;;;;;;;;;4971436;28;20047;-69
2023/06/07 17:10:30;;;;;;;11.57;4.85;;;;;;;;;;4971886;28;20069;-68
2023/06/07 17:12:57;;;;;;;10.18;4.35;;;;;;;;;;4955657;28;20046;-68
2023/06/07 17:15:27;;;;;;;11.90;4.05;;;;;;;;;;4969181;28;20400;-68
2023/06/07 17:18:00;;;;;;;9.48;4.63;;;;;;;;;;4973043;28;20497;-68
2023/06/07 17:20:30;;;;;;;12.03;4.40;;;;;;;;;;4955299;28;20129;-68
2023/06/07 17:22:59;;;;;;;12.35;4.32;;;;;;;;;;4955132;28;20043;-68
2023/06/07 17:25:27;;;;;;;11.10;4.07;;;;;;;;;;4951548;28;20047;-68
2023/06/07 17:27:53;;;;;;;9.48;3.83;;;;;;;;;;4962057;28;20047;-68
2023/06/07 17:30:21;;;;;;;10.52;4.20;;;;;;;;;;4972748;28;20045;-67
2023/06/07 17:32:47;;;;;;;10.13;4.53;;;;;;;;;;4966848;28;20517;-67
2023/06/07 17:35:14;;;;;;;10.38;4.43;;;;;;;;;;4969685;28;20079;-68
2023/06/07 17:37:40;;;;;;;9.80;4.55;;;;;;;;;;4968485;28;20047;-68
2023/06/07 17:40:07;;;;;;;9.20;4.15;;;;;;;;;;4956021;28;20517;-68
2023/06/07 17:42:34;;;;;;;11.45;4.82;;;;;;;;;;4972315;28;20042;-67
2023/06/07 17:45:00;;;;;;;11.70;4.57;;;;;;;;;;4972416;28;20090;-68
2023/06/07 17:47:26;;;;;;;16.98;5.00;;;;;;;;;;4972331;28;20500;-67
2023/06/07 17:49:52;;;;;;;13.75;5.20;;;;;;;;;;4955096;28;20663;-68
2023/06/07 17:52:18;;;;;;;11.63;4.63;;;;;;;;;;4972369;28;20070;-68
2023/06/07 17:54:46;;;;;;;13.25;4.63;;;;;;;;;;4950847;28;20135;-68
2023/06/07 17:57:13;;;;;;;10.70;4.40;;;;;;;;;;4967423;28;20448;-68
2023/06/07 17:59:39;;;;;;;10.45;4.25;;;;;;;;;;4968988;28;20053;-68
2023/06/07 18:02:06;;;;;;;11.10;3.83;;;;;;;;;;4970476;28;20039;-68
2023/06/07 18:04:32;;;;;;;10.23;3.85;;;;;;;;;;4945172;28;20084;-68
2023/06/07 18:06:58;;;;;;;10.40;4.03;;;;;;;;;;4978628;28;20046;-67
2023/06/07 18:09:24;;;;;;;9.98;4.00;;;;;;;;;;4975795;28;20043;-67
2023/06/07 18:11:50;;;;;;;10.82;4.45;;;;;;;;;;4958337;28;20035;-67
2023/06/07 18:14:17;;;;;;;11.60;4.70;;;;;;;;;;4975486;28;20150;-67
2023/06/07 18:16:44;;;;;;;11.40;4.55;;;;;;;;;;4974083;28;20062;-69
2023/06/07 18:19:10;;;;;;;11.05;4.90;;;;;;;;;;4969093;28;20118;-68
2023/06/07 18:21:36;;;;;;;10.55;4.40;;;;;;;;;;4953190;28;20500;-68
2023/06/07 18:24:02;;;;;;;13.73;4.95;;;;;;;;;;4954975;28;20078;-67
2023/06/07 18:26:28;;;;;;;11.82;4.35;;;;;;;;;;4975770;28;20043;-68
2023/06/07 18:28:54;;;;;;;12.35;4.25;;;;;;;;;;4953587;28;20113;-68
2023/06/07 18:31:20;;;;;;;10.50;4.65;;;;;;;;;;4956430;28;20043;-68
2023/06/07 18:33:46;;;;;;;9.38;4.07;;;;;;;;;;4957824;28;20052;-68
2023/06/07 18:36:12;;;;;;;8.40;3.90;;;;;;;;;;4975041;28;20038;-68
2023/06/07 18:38:38;;;;;;;9.88;4.22;;;;;;;;;;4957131;28;20039;-68
2023/06/07 18:41:05;;;;;;;16.65;4.28;;;;;;;;;;4974942;28;20043;-68
2023/06/07 18:43:31;;;;;;;13.20;4.35;;;;;;;;;;4974262;28;20114;-68
2023/06/07 18:45:57;;;;;;;11.60;3.80;;;;;;;;;;4957340;28;20117;-68
2023/06/07 18:48:23;;;;;;;10.80;3.95;;;;;;;;;;4956978;28;20090;-68
2023/06/07 18:50:50;;;;;;;11.38;4.38;;;;;;;;;;4949351;28;20046;-68
2023/06/07 18:53:16;;;;;;;9.75;4.32;;;;;;;;;;4969470;28;20047;-68
2023/06/07 18:55:42;;;;;;;13.10;4.95;;;;;;;;;;4971668;28;20519;-68
2023/06/07 18:58:08;;;;;;;12.15;4.78;;;;;;;;;;4952831;28;20050;-68
2023/06/07 19:00:34;;;;;;;9.30;5.10;;;;;;;;;;4973533;28;20070;-68
2023/06/07 19:03:00;;;;;;;13.00;4.60;;;;;;;;;;4972003;28;20030;-68
2023/06/07 19:05:26;;;;;;;11.35;4.72;;;;;;;;;;4973973;28;20415;-68
2023/06/07 19:07:53;;;;;;;7.75;3.92;;;;;;;;;;4974143;28;20074;-68
2023/06/07 19:10:19;;;;;;;12.35;5.70;;;;;;;;;;4973786;28;20039;-68
2023/06/07 19:12:45;;;;;;;11.57;4.13;;;;;;;;;;4967847;28;20035;-67
2023/06/07 19:15:11;;;;;;;10.18;4.75;;;;;;;;;;4955669;28;20543;-68
2023/06/07 19:17:37;;;;;;;10.13;4.80;;;;;;;;;;4968992;28;20113;-68
2023/06/07 19:20:03;;;;;;;12.80;5.32;;;;;;;;;;4967005;28;20118;-68
2023/06/07 19:22:29;;;;;;;12.80;5.15;;;;;;;;;;4938127;28;20078;-68
2023/06/07 19:24:55;;;;;;;12.98;5.35;;;;;;;;;;4934763;28;20522;-68
2023/06/07 19:27:22;;;;;;;12.05;5.70;;;;;;;;;;4935461;28;20065;-68
2023/06/07 19:29:48;;;;;;;12.43;5.10;;;;;;;;;;4933945;28;20162;-69
2023/06/07 19:32:15;;;;;;;10.15;5.13;;;;;;;;;;4933925;28;20262;-69
2023/06/07 19:34:43;;;;;;;11.90;5.88;;;;;;;;;;4930820;28;20042;-69
2023/06/07 19:37:10;;;;;;;16.00;7.10;;;;;;;;;;4934872;28;20335;-69
2023/06/07 19:39:37;;;;;;;14.57;5.72;;;;;;;;;;4933718;28;20049;-69
2023/06/07 19:42:06;;;;;;;12.15;6.00;;;;;;;;;;4935522;28;20205;-69
2023/06/07 19:44:32;;;;;;;12.57;5.68;;;;;;;;;;4914824;28;20113;-69
2023/06/07 19:47:01;;;;;;;12.23;6.10;;;;;;;;;;4936272;28;20086;-69
2023/06/07 19:49:28;;;;;;;10.43;5.43;;;;;;;;;;4936236;28;20065;-69
2023/06/07 19:51:54;;;;;;;11.35;5.72;;;;;;;;;;4937939;28;20050;-69